createdAt,value
2023-04-09T00:00:42.257Z,6.57
2023-04-09T00:03:08.883Z,5.57
2023-04-09T00:05:38.902Z,5.95
2023-04-09T00:08:05.680Z,5.53
2023-04-09T00:10:32.107Z,5.53
2023-04-09T00:12:58.727Z,6.10
2023-04-09T00:15:31.267Z,5.82
2023-04-09T00:17:58.729Z,5.78
2023-04-09T00:20:25.446Z,5.25
2023-04-09T00:22:52.397Z,4.82
2023-04-09T00:25:19.991Z,6.07
2023-04-09T00:27:47.152Z,5.43
2023-04-09T00:30:13.962Z,6.28
2023-04-09T00:32:40.989Z,5.90
2023-04-09T00:35:07.900Z,5.15
2023-04-09T00:37:34.579Z,5.95
2023-04-09T00:40:01.352Z,6.13
2023-04-09T00:42:31.872Z,5.72
2023-04-09T00:44:58.631Z,5.47
2023-04-09T00:47:25.535Z,5.88
2023-04-09T00:49:52.200Z,6.55
2023-04-09T00:52:18.706Z,6.07
2023-04-09T00:54:45.303Z,6.68
2023-04-09T00:57:12.436Z,8.27
2023-04-09T00:59:39.005Z,6.28
2023-04-09T01:02:05.575Z,7.25
2023-04-09T01:04:32.180Z,6.53
2023-04-09T01:07:10.981Z,6.85
2023-04-09T01:09:41.477Z,8.15
2023-04-09T01:12:21.934Z,6.97
2023-04-09T01:14:51.682Z,6.97
2023-04-09T01:17:24.299Z,6.70
2023-04-09T01:20:12.017Z,7.53
2023-04-09T01:22:57.716Z,6.78
2023-04-09T01:25:29.066Z,7.47
2023-04-09T01:28:10.974Z,7.22
2023-04-09T01:30:37.724Z,8.68
2023-04-09T01:33:05.602Z,7.60
2023-04-09T01:35:32.341Z,7.45
2023-04-09T01:37:59.042Z,7.88
2023-04-09T01:40:25.897Z,8.18
2023-04-09T01:42:53.046Z,8.38
2023-04-09T01:45:20.528Z,8.32
2023-04-09T01:47:47.270Z,7.63
2023-04-09T01:50:14.149Z,8.20
2023-04-09T01:52:41.211Z,7.55
2023-04-09T01:55:07.997Z,7.25
2023-04-09T01:57:34.433Z,7.82
2023-04-09T02:00:01.056Z,7.60
2023-04-09T02:02:31.625Z,7.43
2023-04-09T02:04:58.839Z,7.22
2023-04-09T02:07:31.940Z,6.00
2023-04-09T02:09:59.576Z,7.85
2023-04-09T02:12:26.213Z,7.70
2023-04-09T02:14:53.716Z,8.05
2023-04-09T02:17:20.371Z,7.50
2023-04-09T02:19:47.768Z,6.97
2023-04-09T02:22:14.966Z,6.50
2023-04-09T02:24:41.584Z,6.75
2023-04-09T02:27:08.090Z,7.03
2023-04-09T02:29:34.894Z,7.22
2023-04-09T02:32:01.534Z,6.55
2023-04-09T02:34:28.252Z,6.43
2023-04-09T02:36:55.119Z,5.85
2023-04-09T02:39:21.729Z,5.95
2023-04-09T02:41:48.672Z,5.97
2023-04-09T02:44:15.201Z,4.97
2023-04-09T02:46:41.920Z,5.55
2023-04-09T02:49:08.555Z,5.35
2023-04-09T02:51:35.887Z,5.30
2023-04-09T02:54:03.075Z,5.05
2023-04-09T02:56:29.634Z,6.90
2023-04-09T02:58:56.244Z,5.25
2023-04-09T03:01:22.853Z,4.40
2023-04-09T03:03:49.831Z,4.65
2023-04-09T03:06:16.760Z,5.07
2023-04-09T03:08:43.309Z,4.78
2023-04-09T03:11:09.832Z,5.45
2023-04-09T03:13:36.366Z,4.70
2023-04-09T03:16:02.995Z,5.43
2023-04-09T03:18:29.514Z,4.47
2023-04-09T03:20:56.449Z,4.82
2023-04-09T03:23:23.453Z,4.88
2023-04-09T03:25:59.587Z,3.88
2023-04-09T03:28:26.408Z,4.57
2023-04-09T03:30:54.054Z,5.07
2023-04-09T03:33:21.646Z,4.32
2023-04-09T03:35:54.088Z,5.07
2023-04-09T03:38:43.856Z,5.13
2023-04-09T03:41:22.534Z,5.13
2023-04-09T03:43:49.342Z,4.88
2023-04-09T03:46:20.965Z,4.80
2023-04-09T03:48:48.525Z,4.25
2023-04-09T03:51:15.581Z,4.45
2023-04-09T03:53:48.078Z,4.65
2023-04-09T03:56:14.740Z,3.97
2023-04-09T03:58:42.207Z,4.75
2023-04-09T04:01:11.089Z,4.90
2023-04-09T04:03:44.410Z,5.53
2023-04-09T04:06:20.377Z,5.43
2023-04-09T04:08:57.077Z,5.07
2023-04-09T04:11:33.304Z,4.63
2023-04-09T04:13:59.962Z,5.20
2023-04-09T04:16:27.173Z,5.13
2023-04-09T04:18:54.756Z,4.95
2023-04-09T04:21:21.646Z,5.97
2023-04-09T04:23:56.193Z,4.85
2023-04-09T04:26:26.580Z,6.63
2023-04-09T04:28:53.421Z,6.03
2023-04-09T04:31:34.458Z,6.88
2023-04-09T04:34:01.136Z,6.30
2023-04-09T04:36:27.915Z,6.25
2023-04-09T04:38:54.696Z,6.57
2023-04-09T04:41:32.794Z,5.93
2023-04-09T04:44:13.446Z,6.30
2023-04-09T04:46:41.178Z,6.25
2023-04-09T04:49:07.718Z,6.40
2023-04-09T04:51:41.591Z,6.93
2023-04-09T04:54:11.779Z,6.18
2023-04-09T04:56:39.776Z,5.38
2023-04-09T04:59:15.840Z,7.38
2023-04-09T05:01:55.024Z,5.72
2023-04-09T05:04:21.668Z,6.28
2023-04-09T05:06:48.261Z,7.03
2023-04-09T05:11:58.487Z,5.47
2023-04-09T05:14:25.668Z,7.05
2023-04-09T05:16:52.817Z,6.30
2023-04-09T05:19:23.798Z,5.90
2023-04-09T05:21:56.324Z,6.38
2023-04-09T05:24:22.920Z,6.40
2023-04-09T05:26:49.702Z,5.53
2023-04-09T05:29:17.418Z,6.47
2023-04-09T05:31:43.975Z,6.95
2023-04-09T05:34:20.186Z,5.53
2023-04-09T05:36:50.669Z,5.35
2023-04-09T05:39:18.584Z,5.45
2023-04-09T05:41:46.551Z,5.10
2023-04-09T05:44:25.460Z,5.30
2023-04-09T05:46:58.697Z,4.80
2023-04-09T05:49:32.256Z,4.47
2023-04-09T05:52:00.348Z,4.38
2023-04-09T05:54:31.693Z,4.13
2023-04-09T05:56:58.739Z,3.85
2023-04-09T05:59:25.974Z,4.40
2023-04-09T06:01:53.670Z,4.18
2023-04-09T06:04:20.812Z,3.92
2023-04-09T06:06:47.483Z,3.90
2023-04-09T06:09:14.346Z,4.15
2023-04-09T06:11:41.158Z,4.47
2023-04-09T06:14:07.771Z,3.95
2023-04-09T06:16:34.896Z,4.32
2023-04-09T06:19:01.316Z,3.67
2023-04-09T06:21:28.006Z,6.57
2023-04-09T06:23:54.698Z,3.58
2023-04-09T06:26:21.545Z,4.55
2023-04-09T06:28:48.076Z,3.83
2023-04-09T06:31:14.775Z,3.65
2023-04-09T06:33:41.375Z,3.83
2023-04-09T06:36:08.072Z,4.03
2023-04-09T06:38:34.593Z,6.00
2023-04-09T06:41:01.149Z,5.97
2023-04-09T06:43:27.694Z,5.60
2023-04-09T06:45:54.305Z,5.68
2023-04-09T06:48:20.786Z,5.28
2023-04-09T06:50:47.388Z,6.20
2023-04-09T06:53:14.763Z,5.70
2023-04-09T06:55:42.090Z,6.05
2023-04-09T06:58:08.698Z,5.95
2023-04-09T07:00:35.487Z,6.38
2023-04-09T07:03:02.507Z,6.47
2023-04-09T07:05:29.358Z,6.03
2023-04-09T07:07:56.092Z,8.18
2023-04-09T07:10:22.588Z,7.60
2023-04-09T07:12:49.097Z,8.25
2023-04-09T07:15:15.676Z,7.35
2023-04-09T07:17:42.606Z,8.27
2023-04-09T07:20:09.333Z,7.68
2023-04-09T07:22:36.378Z,7.78
2023-04-09T07:25:02.902Z,7.35
2023-04-09T07:27:29.515Z,8.77
2023-04-09T07:29:56.922Z,8.23
2023-04-09T07:32:24.118Z,7.78
2023-04-09T07:34:54.534Z,7.82
2023-04-09T07:37:21.584Z,8.85
2023-04-09T07:39:48.414Z,8.60
2023-04-09T07:42:14.919Z,9.48
2023-04-09T07:44:41.454Z,8.88
2023-04-09T07:47:08.477Z,8.40
2023-04-09T07:49:35.834Z,8.38
2023-04-09T07:52:02.385Z,9.45
2023-04-09T07:54:28.860Z,7.70
2023-04-09T07:56:56.295Z,8.77
2023-04-09T07:59:22.870Z,8.23
2023-04-09T08:01:49.500Z,7.78
2023-04-09T08:04:16.293Z,7.80
2023-04-09T08:06:43.275Z,7.93
2023-04-09T08:09:09.725Z,8.85
2023-04-09T08:11:36.234Z,7.65
2023-04-09T08:14:04.538Z,8.55
2023-04-09T08:16:31.119Z,7.32
2023-04-09T08:18:57.614Z,7.07
2023-04-09T08:21:24.269Z,8.02
2023-04-09T08:23:51.239Z,6.78
2023-04-09T08:26:17.952Z,6.97
2023-04-09T08:28:44.696Z,7.85
2023-04-09T08:31:11.320Z,7.45
2023-04-09T08:33:37.775Z,7.03
2023-04-09T08:36:08.207Z,6.55
2023-04-09T08:38:34.769Z,5.93
2023-04-09T08:41:01.285Z,5.65
2023-04-09T08:43:37.406Z,5.90
2023-04-09T08:46:15.741Z,5.15
2023-04-09T08:48:46.779Z,5.05
2023-04-09T08:51:14.455Z,4.05
2023-04-09T08:53:43.578Z,3.97
2023-04-09T08:56:10.168Z,4.43
2023-04-09T08:58:36.677Z,4.97
2023-04-09T09:01:03.311Z,3.72
2023-04-09T09:03:29.940Z,3.38
2023-04-09T09:05:56.538Z,3.65
2023-04-09T09:08:24.362Z,3.00
2023-04-09T09:10:50.925Z,2.80
2023-04-09T09:13:17.422Z,2.38
2023-04-09T09:15:44.324Z,2.03
2023-04-09T09:18:10.848Z,1.80
2023-04-09T09:20:37.879Z,1.70
2023-04-09T09:23:04.437Z,1.80
2023-04-09T09:25:37.589Z,1.63
2023-04-09T09:28:08.912Z,1.40
2023-04-09T09:30:36.600Z,1.65
2023-04-09T09:33:06.189Z,1.65
2023-04-09T09:35:47.426Z,1.60
2023-04-09T09:38:15.996Z,2.85
2023-04-09T09:40:42.694Z,1.55
2023-04-09T09:43:09.554Z,1.60
2023-04-09T09:45:40.126Z,1.55
2023-04-09T09:50:34.310Z,1.55
2023-04-09T09:53:05.254Z,1.30
2023-04-09T09:55:32.586Z,1.48
2023-04-09T09:58:02.018Z,1.67
2023-04-09T10:00:30.407Z,1.48
2023-04-09T10:02:59.280Z,1.92
2023-04-09T10:05:27.712Z,1.10
2023-04-09T10:07:56.034Z,1.50
2023-04-09T10:10:23.492Z,1.88
2023-04-09T10:12:51.118Z,1.20
2023-04-09T10:15:18.542Z,1.38
2023-04-09T10:17:45.040Z,1.10
2023-04-09T10:20:14.300Z,1.00
2023-04-09T10:22:42.987Z,1.33
2023-04-09T10:25:10.261Z,1.10
2023-04-09T10:27:36.935Z,1.50
2023-04-09T10:30:05.388Z,1.45
2023-04-09T10:32:34.737Z,1.05
2023-04-09T10:35:02.472Z,1.48
2023-04-09T10:37:29.951Z,1.60
2023-04-09T10:39:57.731Z,1.58
2023-04-09T10:42:29.274Z,1.58
2023-04-09T10:45:09.267Z,1.30
2023-04-09T10:47:38.009Z,1.30
2023-04-09T10:50:24.052Z,1.45
2023-04-09T10:52:58.339Z,1.50
2023-04-09T10:55:37.034Z,1.20
2023-04-09T10:58:09.079Z,1.60
2023-04-09T11:00:38.691Z,1.60
2023-04-09T11:03:14.329Z,1.20
2023-04-09T11:05:42.970Z,1.70
2023-04-09T11:08:10.816Z,1.70
2023-04-09T11:10:44.887Z,1.63
2023-04-09T11:13:15.746Z,1.48
2023-04-09T11:15:42.601Z,1.60
2023-04-09T11:18:13.920Z,1.80
2023-04-09T11:20:40.993Z,1.75
2023-04-09T11:23:08.909Z,1.30
2023-04-09T11:25:35.672Z,1.13
2023-04-09T11:28:06.211Z,1.20
2023-04-09T11:33:01.871Z,1.70
2023-04-09T11:35:28.487Z,1.63
2023-04-09T11:37:55.143Z,1.88
2023-04-09T11:40:22.919Z,1.67
2023-04-09T11:42:50.330Z,1.65
2023-04-09T11:45:17.208Z,2.13
2023-04-09T11:47:44.598Z,1.85
2023-04-09T11:50:12.305Z,1.48
2023-04-09T11:52:39.839Z,1.83
2023-04-09T11:55:06.980Z,1.63
2023-04-09T11:57:41.378Z,1.70
2023-04-09T12:00:08.938Z,2.30
2023-04-09T12:02:37.455Z,1.90
2023-04-09T12:05:04.960Z,1.60
2023-04-09T12:07:34.391Z,2.00
2023-04-09T12:10:10.545Z,1.67
2023-04-09T12:12:41.293Z,2.22
2023-04-09T12:15:10.608Z,1.80
2023-04-09T12:17:37.121Z,1.60
2023-04-09T12:20:04.061Z,1.70
2023-04-09T12:22:30.617Z,1.75
2023-04-09T12:24:57.258Z,1.92
2023-04-09T12:27:24.003Z,2.15
2023-04-09T12:29:50.592Z,2.20
2023-04-09T12:32:17.231Z,2.10
2023-04-09T12:34:43.816Z,2.25
2023-04-09T12:37:10.789Z,1.88
2023-04-09T12:39:37.260Z,1.90
2023-04-09T12:42:03.751Z,2.47
2023-04-09T12:44:30.301Z,2.38
2023-04-09T12:46:56.706Z,2.15
2023-04-09T12:49:23.279Z,2.38
2023-04-09T12:51:49.842Z,2.50
2023-04-09T12:54:16.484Z,2.40
2023-04-09T12:56:43.124Z,2.80
2023-04-09T12:59:09.703Z,2.67
2023-04-09T13:01:36.569Z,2.47
2023-04-09T13:04:03.293Z,2.60
2023-04-09T13:06:29.975Z,2.53
2023-04-09T13:08:56.692Z,2.63
2023-04-09T13:11:23.177Z,2.80
2023-04-09T13:13:50.034Z,2.40
2023-04-09T13:16:16.893Z,2.13
2023-04-09T13:18:43.440Z,2.42
2023-04-09T13:21:10.100Z,2.47
2023-04-09T13:23:36.663Z,2.80
2023-04-09T13:26:03.376Z,2.53
2023-04-09T13:28:29.952Z,2.42
2023-04-09T13:30:56.544Z,2.03
2023-04-09T13:33:23.085Z,2.15
2023-04-09T13:35:51.129Z,2.90
2023-04-09T13:38:17.898Z,2.03
2023-04-09T13:40:44.435Z,2.63
2023-04-09T13:43:10.969Z,2.38
2023-04-09T13:45:37.491Z,1.88
2023-04-09T13:48:04.111Z,2.28
2023-04-09T13:50:30.838Z,2.00
2023-04-09T13:52:57.442Z,2.45
2023-04-09T13:55:23.882Z,1.92
2023-04-09T13:57:50.482Z,2.28
2023-04-09T14:00:17.387Z,2.28
2023-04-09T14:02:44.135Z,1.95
2023-04-09T14:05:10.710Z,1.92
2023-04-09T14:07:37.273Z,2.10
2023-04-09T14:10:03.853Z,2.17
2023-04-09T14:12:30.376Z,2.03
2023-04-09T14:14:56.813Z,2.53
2023-04-09T14:17:23.455Z,2.58
2023-04-09T14:19:50.028Z,2.22
2023-04-09T14:22:16.611Z,2.17
2023-04-09T14:24:43.109Z,2.63
2023-04-09T14:27:09.618Z,2.15
2023-04-09T14:29:36.655Z,2.30
2023-04-09T14:32:03.257Z,2.20
2023-04-09T14:34:31.284Z,2.13
2023-04-09T14:36:58.031Z,1.85
2023-04-09T14:39:24.782Z,2.00
2023-04-09T14:41:51.558Z,2.03
2023-04-09T14:44:18.054Z,2.15
2023-04-09T14:46:44.602Z,1.98
2023-04-09T14:49:11.127Z,2.42
2023-04-09T14:51:37.676Z,1.70
2023-04-09T14:54:04.236Z,2.10
2023-04-09T14:56:31.002Z,1.92
2023-04-09T14:58:57.551Z,1.83
2023-04-09T15:01:24.096Z,1.70
2023-04-09T15:03:50.819Z,2.08
2023-04-09T15:06:17.513Z,2.05
2023-04-09T15:08:44.937Z,1.98
2023-04-09T15:11:18.102Z,2.35
2023-04-09T15:13:45.227Z,2.05
2023-04-09T15:16:11.936Z,2.30
2023-04-09T15:18:38.489Z,2.40
2023-04-09T15:21:05.452Z,1.67
2023-04-09T15:23:32.069Z,2.03
2023-04-09T15:25:59.105Z,2.17
2023-04-09T15:28:25.685Z,2.00
2023-04-09T15:30:54.521Z,2.67
2023-04-09T15:33:21.084Z,2.75
2023-04-09T15:35:47.610Z,3.00
2023-04-09T15:38:14.224Z,3.05
2023-04-09T15:40:41.420Z,2.60
2023-04-09T15:43:07.922Z,2.55
2023-04-09T15:45:34.348Z,2.65
2023-04-09T15:48:01.004Z,3.20
2023-04-09T15:50:27.536Z,2.92
2023-04-09T15:52:56.289Z,2.97
2023-04-09T15:57:50.154Z,3.25
2023-04-09T16:00:16.819Z,6.35
2023-04-09T16:02:43.480Z,3.50
2023-04-09T16:05:10.123Z,2.90
2023-04-09T16:07:36.956Z,3.13
2023-04-09T16:10:04.708Z,3.42
2023-04-09T16:12:31.296Z,3.35
2023-04-09T16:14:58.238Z,2.97
2023-04-09T16:17:25.350Z,3.63
2023-04-09T16:19:51.873Z,3.65
2023-04-09T16:22:18.526Z,4.25
2023-04-09T16:24:45.279Z,5.60
2023-04-09T16:27:13.465Z,3.63
2023-04-09T16:29:39.978Z,4.10
2023-04-09T16:32:06.594Z,4.35
2023-04-09T16:34:33.272Z,3.95
2023-04-09T16:36:59.889Z,4.05
2023-04-09T16:39:26.448Z,4.30
2023-04-09T16:41:52.951Z,4.45
2023-04-09T16:44:19.504Z,4.43
2023-04-09T16:46:46.089Z,4.22
2023-04-09T16:49:12.757Z,4.10
2023-04-09T16:51:39.305Z,4.35
2023-04-09T16:54:05.904Z,4.30
2023-04-09T16:56:32.391Z,4.53
2023-04-09T16:58:59.030Z,4.30
2023-04-09T17:01:25.724Z,2.30
2023-04-09T17:03:52.479Z,1.92
2023-04-09T17:06:19.385Z,2.20
2023-04-09T17:08:46.286Z,2.00
2023-04-09T17:11:16.003Z,1.90
2023-04-09T17:13:42.652Z,1.80
2023-04-09T17:16:09.422Z,1.60
2023-04-09T17:18:36.195Z,1.67
2023-04-09T17:21:02.761Z,1.60
2023-04-09T17:23:29.311Z,1.45
2023-04-09T17:25:55.868Z,1.45
2023-04-09T17:28:22.497Z,1.73
2023-04-09T17:30:49.068Z,1.67
2023-04-09T17:33:16.032Z,1.60
2023-04-09T17:35:43.073Z,2.50
2023-04-09T17:38:09.769Z,1.70
2023-04-09T17:40:36.299Z,1.63
2023-04-09T17:43:02.871Z,1.45
2023-04-09T17:45:29.327Z,1.27
2023-04-09T17:47:55.986Z,1.80
2023-04-09T17:50:22.524Z,2.13
2023-04-09T17:52:49.101Z,1.95
2023-04-09T17:55:15.631Z,1.48
2023-04-09T17:57:42.930Z,1.80
2023-04-09T18:00:10.186Z,1.30
2023-04-09T18:02:46.077Z,1.63
2023-04-09T18:05:13.139Z,1.63
2023-04-09T18:07:39.733Z,1.60
2023-04-09T18:10:06.831Z,1.88
2023-04-09T18:12:33.394Z,1.52
2023-04-09T18:14:59.867Z,2.60
2023-04-09T18:17:26.737Z,3.80
2023-04-09T18:19:54.033Z,1.73
2023-04-09T18:22:20.550Z,1.67
2023-04-09T18:24:47.168Z,2.22
2023-04-09T18:27:13.741Z,1.90
2023-04-09T18:29:40.445Z,1.80
2023-04-09T18:32:07.069Z,1.90
2023-04-09T18:34:33.772Z,1.60
2023-04-09T18:37:00.585Z,1.77
2023-04-09T18:39:27.258Z,1.58
2023-04-09T18:41:53.817Z,1.83
2023-04-09T18:44:20.331Z,1.60
2023-04-09T18:46:47.250Z,1.80
2023-04-09T18:49:13.888Z,1.80
2023-04-09T18:51:40.338Z,1.67
2023-04-09T18:54:06.975Z,2.20
2023-04-09T18:56:33.706Z,2.47
2023-04-09T18:59:00.453Z,1.63
2023-04-09T19:01:27.182Z,1.83
2023-04-09T19:03:54.100Z,2.10
2023-04-09T19:06:20.889Z,1.80
2023-04-09T19:08:47.952Z,2.17
2023-04-09T19:11:14.832Z,2.00
2023-04-09T19:13:41.367Z,1.67
2023-04-09T19:16:09.395Z,1.98
2023-04-09T19:18:37.096Z,1.83
2023-04-09T19:21:03.999Z,2.72
2023-04-09T19:23:30.731Z,4.30
2023-04-09T19:25:57.566Z,2.20
2023-04-09T19:28:24.177Z,2.13
2023-04-09T19:30:52.446Z,1.98
2023-04-09T19:33:22.567Z,2.03
2023-04-09T19:35:49.641Z,2.03
2023-04-09T19:38:17.107Z,2.28
2023-04-09T19:40:43.982Z,2.08
2023-04-09T19:43:11.114Z,2.08
2023-04-09T19:45:38.489Z,2.50
2023-04-09T19:48:05.510Z,1.73
2023-04-09T19:50:40.421Z,2.08
2023-04-09T19:53:07.118Z,2.17
2023-04-09T19:55:34.003Z,2.17
2023-04-09T19:58:00.885Z,2.33
2023-04-09T20:00:28.282Z,2.00
2023-04-09T20:02:55.698Z,2.30
2023-04-09T20:05:22.687Z,2.45
2023-04-09T20:07:49.819Z,2.08
2023-04-09T20:10:16.396Z,2.13
2023-04-09T20:12:46.502Z,2.10
2023-04-09T20:15:13.177Z,2.78
2023-04-09T20:17:41.582Z,2.33
2023-04-09T20:20:08.390Z,2.17
2023-04-09T20:22:34.925Z,2.03
2023-04-09T20:25:02.169Z,2.63
2023-04-09T20:27:28.684Z,2.20
2023-04-09T20:29:55.413Z,2.72
2023-04-09T20:32:22.617Z,2.33
2023-04-09T20:34:49.626Z,2.08
2023-04-09T20:37:16.248Z,2.35
2023-04-09T20:39:42.769Z,2.20
2023-04-09T20:42:09.208Z,1.98
2023-04-09T20:44:35.740Z,2.83
2023-04-09T20:47:02.204Z,2.45
2023-04-09T20:49:28.939Z,2.33
2023-04-09T20:51:55.806Z,2.17
2023-04-09T20:54:23.167Z,1.95
2023-04-09T20:56:50.026Z,2.33
2023-04-09T20:59:17.240Z,2.22
2023-04-09T21:01:44.111Z,2.42
2023-04-09T21:04:11.005Z,2.25
2023-04-09T21:06:37.662Z,1.75
2023-04-09T21:09:04.232Z,1.90
2023-04-09T21:11:31.208Z,2.20
2023-04-09T21:13:57.977Z,2.30
2023-04-09T21:16:27.202Z,2.50
2023-04-09T21:18:54.104Z,2.42
2023-04-09T21:21:21.000Z,2.08
2023-04-09T21:23:47.431Z,2.20
2023-04-09T21:26:15.035Z,2.17
2023-04-09T21:28:41.633Z,2.30
2023-04-09T21:31:09.734Z,2.20
2023-04-09T21:33:36.397Z,1.80
2023-04-09T21:36:04.557Z,2.78
2023-04-09T21:38:31.189Z,2.38
2023-04-09T21:40:58.031Z,2.40
2023-04-09T21:43:25.174Z,2.38
2023-04-09T21:45:51.710Z,2.30
2023-04-09T21:48:18.290Z,3.03
2023-04-09T21:50:44.759Z,2.38
2023-04-09T21:53:11.643Z,2.17
2023-04-09T21:55:38.830Z,2.10
2023-04-09T21:58:06.136Z,2.00
2023-04-09T22:00:32.622Z,2.28
2023-04-09T22:03:01.531Z,1.88
2023-04-09T22:05:28.471Z,1.75
2023-04-09T22:07:55.648Z,1.98
2023-04-09T22:10:22.393Z,2.03
2023-04-09T22:12:49.348Z,2.17
2023-04-09T22:15:16.435Z,2.15
2023-04-09T22:17:43.415Z,2.25
2023-04-09T22:20:10.013Z,2.40
2023-04-09T22:22:37.735Z,1.98
2023-04-09T22:25:06.762Z,2.38
2023-04-09T22:27:33.478Z,2.30
2023-04-09T22:29:59.989Z,2.25
2023-04-09T22:32:26.656Z,2.03
2023-04-09T22:34:53.564Z,2.47
2023-04-09T22:37:20.568Z,2.33
2023-04-09T22:39:47.302Z,2.08
2023-04-09T22:42:13.868Z,2.13
2023-04-09T22:44:40.425Z,2.63
2023-04-09T22:47:07.200Z,2.45
2023-04-09T22:49:33.750Z,2.80
2023-04-09T22:52:00.201Z,2.38
2023-04-09T22:54:26.757Z,2.35
2023-04-09T22:56:53.321Z,2.08
2023-04-09T22:59:21.363Z,2.03
2023-04-09T23:01:49.861Z,2.33
2023-04-09T23:04:17.937Z,2.53
2023-04-09T23:06:44.725Z,2.35
2023-04-09T23:09:11.286Z,2.25
2023-04-09T23:11:37.867Z,2.25
2023-04-09T23:14:04.356Z,2.67
2023-04-09T23:16:31.135Z,2.03
2023-04-09T23:18:57.681Z,2.05
2023-04-09T23:21:24.158Z,1.70
2023-04-09T23:23:50.649Z,2.30
2023-04-09T23:26:17.297Z,2.17
2023-04-09T23:28:43.792Z,2.38
2023-04-09T23:31:10.479Z,2.17
2023-04-09T23:33:37.168Z,2.00
2023-04-09T23:36:03.841Z,2.20
2023-04-09T23:38:30.325Z,2.70
2023-04-09T23:40:56.844Z,1.88
2023-04-09T23:43:23.365Z,2.10
2023-04-09T23:45:50.581Z,2.30
2023-04-09T23:48:17.097Z,2.45
2023-04-09T23:50:43.624Z,2.20
2023-04-09T23:53:10.904Z,2.40
2023-04-09T23:55:41.554Z,3.00
2023-04-09T23:58:08.420Z,2.20
